createdAt,value
2023-01-17T00:01:45.407Z,1.50
2023-01-17T00:04:31.803Z,0.35
2023-01-17T00:07:16.852Z,0.20
2023-01-17T00:09:57.162Z,0.68
2023-01-17T00:12:25.636Z,0.60
2023-01-17T00:14:54.396Z,0.30
2023-01-17T00:17:24.852Z,0.40
2023-01-17T00:20:10.443Z,0.38
2023-01-17T00:22:56.367Z,0.10
2023-01-17T00:25:55.377Z,1.00
2023-01-17T00:28:22.664Z,0.95
2023-01-17T00:30:49.202Z,2.33
2023-01-17T00:33:15.727Z,0.43
2023-01-17T00:35:42.510Z,2.10
2023-01-17T00:38:11.393Z,0.85
2023-01-17T00:40:41.074Z,1.50
2023-01-17T00:43:28.431Z,0.30
2023-01-17T00:46:13.815Z,0.22
2023-01-17T00:48:59.906Z,0.10
2023-01-17T00:51:46.679Z,0.35
2023-01-17T00:54:32.363Z,0.30
2023-01-17T00:57:17.448Z,0.40
2023-01-17T01:00:03.240Z,0.35
2023-01-17T01:02:48.828Z,0.60
2023-01-17T01:05:34.322Z,2.15
2023-01-17T01:08:20.284Z,0.93
2023-01-17T01:11:07.335Z,1.60
2023-01-17T01:13:58.384Z,1.00
2023-01-17T01:16:44.776Z,0.75
2023-01-17T01:19:30.021Z,0.50
2023-01-17T01:22:15.249Z,0.95
2023-01-17T01:25:00.472Z,0.85
2023-01-17T01:27:45.320Z,0.35
2023-01-17T01:30:31.193Z,0.20
2023-01-17T01:33:16.244Z,0.43
2023-01-17T01:35:43.075Z,1.90
2023-01-17T01:38:09.497Z,0.47
2023-01-17T01:40:44.284Z,0.30
2023-01-17T01:43:13.406Z,0.30
2023-01-17T01:45:40.780Z,0.28
2023-01-17T01:48:25.316Z,0.28
2023-01-17T01:50:51.865Z,1.42
2023-01-17T01:53:22.635Z,0.28
2023-01-17T01:55:53.235Z,0.30
2023-01-17T01:58:25.338Z,0.40
2023-01-17T02:00:52.017Z,0.40
2023-01-17T02:03:25.894Z,0.50
2023-01-17T02:05:52.684Z,0.40
2023-01-17T02:08:24.107Z,2.70
2023-01-17T02:10:55.014Z,0.68
2023-01-17T02:13:25.320Z,0.88
2023-01-17T02:16:09.074Z,0.52
2023-01-17T02:18:54.422Z,0.70
2023-01-17T02:21:40.144Z,0.88
2023-01-17T02:24:28.388Z,1.65
2023-01-17T02:27:10.447Z,1.95
2023-01-17T02:29:42.824Z,1.15
2023-01-17T02:32:34.452Z,1.23
2023-01-17T02:35:23.699Z,4.25
2023-01-17T02:38:08.544Z,1.73
2023-01-17T02:40:59.564Z,2.90
2023-01-17T02:43:59.616Z,1.50
2023-01-17T02:46:29.021Z,1.20
2023-01-17T02:48:57.822Z,1.45
2023-01-17T02:51:42.988Z,4.60
2023-01-17T02:54:29.219Z,7.53
2023-01-17T02:57:13.600Z,3.80
2023-01-17T02:59:54.033Z,3.85
2023-01-17T03:02:40.707Z,2.70
2023-01-17T03:05:14.112Z,1.13
2023-01-17T03:07:42.916Z,3.17
2023-01-17T03:10:12.808Z,2.00
2023-01-17T03:12:40.632Z,5.28
2023-01-17T03:15:13.185Z,2.63
2023-01-17T03:17:44.201Z,3.92
2023-01-17T03:20:11.021Z,4.00
2023-01-17T03:22:37.574Z,1.85
2023-01-17T03:25:04.455Z,2.63
2023-01-17T03:27:31.029Z,2.33
2023-01-17T03:29:57.592Z,3.00
2023-01-17T03:32:25.309Z,2.70
2023-01-17T03:34:51.791Z,1.80
2023-01-17T03:37:18.187Z,4.65
2023-01-17T03:39:44.606Z,1.33
2023-01-17T03:42:11.195Z,4.28
2023-01-17T03:44:40.825Z,3.63
2023-01-17T03:47:12.403Z,1.65
2023-01-17T03:49:40.067Z,1.40
2023-01-17T03:52:07.595Z,2.55
2023-01-17T03:54:34.243Z,4.40
2023-01-17T03:57:00.776Z,1.75
2023-01-17T03:59:27.287Z,3.53
2023-01-17T04:01:53.786Z,1.00
2023-01-17T04:04:20.233Z,1.88
2023-01-17T04:06:48.047Z,2.47
2023-01-17T04:09:14.511Z,2.53
2023-01-17T04:11:41.003Z,2.13
2023-01-17T04:14:12.424Z,3.08
2023-01-17T04:16:38.901Z,3.38
2023-01-17T04:19:06.727Z,2.03
2023-01-17T04:21:33.197Z,1.98
2023-01-17T04:23:59.902Z,4.65
2023-01-17T04:26:26.326Z,1.98
2023-01-17T04:28:52.726Z,2.00
2023-01-17T04:31:19.300Z,2.70
2023-01-17T04:33:45.798Z,1.63
2023-01-17T04:36:12.336Z,1.88
2023-01-17T04:38:39.585Z,2.05
2023-01-17T04:41:06.008Z,3.58
2023-01-17T04:43:32.417Z,4.43
2023-01-17T04:45:59.191Z,1.50
2023-01-17T04:48:27.168Z,1.90
2023-01-17T04:51:00.814Z,1.95
2023-01-17T04:55:53.764Z,3.63
2023-01-17T04:58:20.365Z,2.15
2023-01-17T05:00:50.915Z,2.88
2023-01-17T05:03:21.977Z,1.40
2023-01-17T05:05:48.720Z,8.27
2023-01-17T05:08:23.001Z,1.75
2023-01-17T05:10:49.578Z,3.55
2023-01-17T05:13:17.512Z,1.10
2023-01-17T05:15:44.324Z,2.13
2023-01-17T05:18:13.934Z,3.10
2023-01-17T05:20:40.467Z,2.60
2023-01-17T05:23:07.423Z,1.92
2023-01-17T05:25:34.908Z,1.85
2023-01-17T05:28:01.783Z,1.65
2023-01-17T05:30:31.048Z,0.88
2023-01-17T05:33:00.311Z,1.80
2023-01-17T05:35:32.723Z,0.75
2023-01-17T05:38:00.188Z,2.72
2023-01-17T05:40:29.166Z,2.42
2023-01-17T05:42:57.672Z,2.92
2023-01-17T05:45:26.562Z,3.13
2023-01-17T05:47:54.822Z,2.72
2023-01-17T05:50:33.349Z,1.88
2023-01-17T05:53:06.356Z,1.30
2023-01-17T05:55:33.631Z,1.27
2023-01-17T05:58:01.311Z,3.38
2023-01-17T06:00:28.677Z,1.38
2023-01-17T06:02:57.128Z,1.45
2023-01-17T06:05:29.503Z,3.55
2023-01-17T06:07:56.864Z,2.13
2023-01-17T06:10:26.955Z,4.70
2023-01-17T06:13:06.483Z,1.60
2023-01-17T06:15:35.690Z,2.40
2023-01-17T06:18:07.560Z,2.65
2023-01-17T06:20:39.685Z,1.35
2023-01-17T06:23:08.881Z,3.45
2023-01-17T06:25:46.445Z,0.85
2023-01-17T06:28:15.611Z,3.85
2023-01-17T06:30:43.924Z,2.88
2023-01-17T06:33:12.358Z,5.10
2023-01-17T06:35:43.354Z,1.58
2023-01-17T06:38:13.100Z,2.90
2023-01-17T06:40:39.522Z,5.72
2023-01-17T06:43:06.508Z,2.15
2023-01-17T06:45:35.182Z,5.78
2023-01-17T06:48:03.913Z,3.15
2023-01-17T06:50:37.297Z,8.85
2023-01-17T06:53:07.154Z,2.88
2023-01-17T06:55:34.465Z,4.90
2023-01-17T06:58:02.810Z,2.97
2023-01-17T07:00:30.811Z,1.77
2023-01-17T07:02:57.563Z,3.92
2023-01-17T07:05:24.051Z,3.15
2023-01-17T07:07:50.483Z,3.60
2023-01-17T07:10:17.126Z,3.42
2023-01-17T07:12:43.628Z,5.30
2023-01-17T07:15:10.821Z,3.13
2023-01-17T07:17:42.330Z,5.25
2023-01-17T07:20:09.449Z,4.30
2023-01-17T07:22:37.633Z,5.97
2023-01-17T07:25:04.833Z,2.20
2023-01-17T07:27:31.298Z,4.30
2023-01-17T07:29:57.932Z,2.67
2023-01-17T07:32:26.626Z,3.58
2023-01-17T07:34:53.974Z,6.10
2023-01-17T07:37:20.903Z,5.43
2023-01-17T07:39:47.595Z,4.07
2023-01-17T07:42:14.056Z,7.50
2023-01-17T07:44:47.984Z,1.42
2023-01-17T07:47:15.075Z,5.20
2023-01-17T07:49:41.564Z,3.72
2023-01-17T07:52:08.729Z,2.58
2023-01-17T07:54:35.800Z,4.43
2023-01-17T07:57:02.938Z,4.30
2023-01-17T07:59:29.508Z,3.92
2023-01-17T08:01:56.079Z,2.10
2023-01-17T08:04:26.268Z,2.72
2023-01-17T08:06:54.907Z,1.92
2023-01-17T08:09:21.551Z,3.75
2023-01-17T08:11:52.393Z,7.40
2023-01-17T08:14:18.808Z,3.90
2023-01-17T08:16:46.968Z,2.30
2023-01-17T08:19:15.238Z,4.47
2023-01-17T08:21:41.703Z,2.03
2023-01-17T08:24:17.465Z,2.03
2023-01-17T08:26:43.974Z,5.45
2023-01-17T08:29:10.385Z,4.40
2023-01-17T08:31:36.910Z,3.13
2023-01-17T08:34:03.962Z,1.88
2023-01-17T08:36:31.384Z,4.25
2023-01-17T08:38:59.998Z,4.95
2023-01-17T08:41:29.783Z,6.25
2023-01-17T08:43:57.344Z,2.03
2023-01-17T08:46:25.144Z,1.23
2023-01-17T08:48:58.743Z,3.67
2023-01-17T08:53:57.173Z,7.50
2023-01-17T08:56:23.875Z,5.40
2023-01-17T08:58:50.425Z,3.58
2023-01-17T09:01:17.002Z,3.85
2023-01-17T09:03:43.591Z,2.67
2023-01-17T09:06:12.854Z,2.10
2023-01-17T09:08:39.670Z,7.30
2023-01-17T09:11:07.045Z,7.85
2023-01-17T09:13:33.737Z,4.03
2023-01-17T09:16:00.732Z,3.22
2023-01-17T09:18:28.733Z,4.93
2023-01-17T09:21:03.127Z,3.35
2023-01-17T09:23:30.653Z,9.73
2023-01-17T09:25:59.635Z,2.63
2023-01-17T09:28:27.216Z,1.60
2023-01-17T09:30:54.907Z,4.80
2023-01-17T09:33:24.347Z,6.15
2023-01-17T09:35:50.930Z,2.60
2023-01-17T09:38:17.389Z,4.88
2023-01-17T09:40:46.566Z,10.27
2023-01-17T09:43:41.023Z,4.00
2023-01-17T09:46:23.856Z,2.75
2023-01-17T09:49:02.681Z,3.13
2023-01-17T09:51:29.461Z,1.48
2023-01-17T09:53:56.024Z,4.85
2023-01-17T09:56:35.077Z,5.07
2023-01-17T09:59:20.907Z,3.65
2023-01-17T10:02:11.557Z,3.45
2023-01-17T10:05:02.417Z,5.25
2023-01-17T10:07:44.230Z,3.15
2023-01-17T10:10:28.223Z,3.65
2023-01-17T10:15:58.584Z,4.07
2023-01-17T10:18:58.915Z,4.45
2023-01-17T10:21:49.931Z,3.47
2023-01-17T10:24:52.475Z,2.50
2023-01-17T10:27:25.943Z,3.70
2023-01-17T10:29:52.415Z,5.75
2023-01-17T10:32:21.503Z,3.47
2023-01-17T10:34:51.061Z,3.47
2023-01-17T10:37:40.304Z,5.53
2023-01-17T10:40:20.538Z,1.60
2023-01-17T10:43:15.228Z,6.40
2023-01-17T10:45:48.731Z,5.30
2023-01-17T10:48:44.351Z,7.95
2023-01-17T10:51:45.079Z,3.67
2023-01-17T10:54:25.528Z,6.07
2023-01-17T10:56:52.284Z,6.72
2023-01-17T10:59:48.172Z,3.95
2023-01-17T11:02:21.737Z,3.70
2023-01-17T11:07:24.473Z,1.45
2023-01-17T11:09:57.237Z,2.53
2023-01-17T11:12:32.440Z,4.00
2023-01-17T11:15:10.858Z,2.85
2023-01-17T11:17:41.350Z,2.95
2023-01-17T11:20:09.119Z,2.53
2023-01-17T11:22:35.609Z,3.90
2023-01-17T11:25:02.609Z,3.67
2023-01-17T11:27:35.205Z,3.88
2023-01-17T11:30:15.988Z,1.92
2023-01-17T11:32:54.028Z,2.78
2023-01-17T11:35:27.868Z,4.65
2023-01-17T11:38:06.808Z,1.73
2023-01-17T11:40:38.561Z,2.53
2023-01-17T11:43:21.021Z,3.25
2023-01-17T11:46:14.548Z,5.18
2023-01-17T11:48:41.368Z,3.17
2023-01-17T11:51:19.172Z,2.20
2023-01-17T11:53:48.192Z,4.88
2023-01-17T11:56:33.843Z,3.63
2023-01-17T11:59:31.643Z,2.45
2023-01-17T12:02:05.291Z,3.22
2023-01-17T12:07:25.146Z,3.55
2023-01-17T12:10:18.611Z,6.55
2023-01-17T12:13:03.724Z,3.08
2023-01-17T12:15:45.092Z,3.25
2023-01-17T12:18:26.062Z,3.25
2023-01-17T12:21:00.144Z,4.00
2023-01-17T12:23:46.890Z,2.33
2023-01-17T12:26:31.579Z,4.00
2023-01-17T12:29:19.617Z,4.10
2023-01-17T12:32:00.277Z,7.63
2023-01-17T12:34:38.786Z,1.67
2023-01-17T12:37:22.334Z,14.65
2023-01-17T12:39:58.301Z,6.53
2023-01-17T12:42:31.607Z,5.05
2023-01-17T12:45:17.433Z,5.38
2023-01-17T12:47:48.785Z,4.18
2023-01-17T12:50:26.271Z,13.90
2023-01-17T12:53:06.392Z,2.53
2023-01-17T12:55:38.555Z,3.05
2023-01-17T12:58:11.277Z,4.78
2023-01-17T13:00:39.580Z,4.47
2023-01-17T13:03:16.415Z,3.20
2023-01-17T13:05:46.310Z,12.35
2023-01-17T13:08:28.416Z,8.50
2023-01-17T13:10:57.924Z,5.07
2023-01-17T13:13:29.933Z,4.32
2023-01-17T13:18:46.302Z,4.88
2023-01-17T13:21:15.463Z,3.28
2023-01-17T13:24:17.344Z,5.43
2023-01-17T13:26:51.758Z,3.25
2023-01-17T13:29:27.203Z,4.10
2023-01-17T13:32:14.412Z,9.93
2023-01-17T13:34:54.959Z,10.48
2023-01-17T13:37:40.980Z,5.72
2023-01-17T13:40:28.569Z,6.68
2023-01-17T13:43:00.093Z,4.47
2023-01-17T13:45:53.635Z,7.80
2023-01-17T13:48:23.476Z,4.55
2023-01-17T13:53:34.860Z,3.88
2023-01-17T13:56:22.983Z,4.38
2023-01-17T13:58:54.938Z,4.93
2023-01-17T14:01:28.631Z,8.35
2023-01-17T14:03:55.248Z,4.60
2023-01-17T14:06:40.759Z,4.35
2023-01-17T14:09:13.229Z,6.20
2023-01-17T14:12:08.977Z,12.57
2023-01-17T14:14:36.577Z,5.80
2023-01-17T14:17:28.306Z,6.75
2023-01-17T14:20:01.925Z,11.75
2023-01-17T14:22:33.481Z,3.13
2023-01-17T14:25:11.786Z,4.43
2023-01-17T14:27:54.524Z,10.85
2023-01-17T14:30:30.518Z,6.22
2023-01-17T14:33:06.129Z,7.88
2023-01-17T14:35:40.797Z,5.57
2023-01-17T14:38:27.926Z,4.07
2023-01-17T14:41:19.115Z,10.32
2023-01-17T14:43:49.053Z,6.25
2023-01-17T14:46:21.034Z,4.82
2023-01-17T14:48:47.817Z,7.78
2023-01-17T14:51:20.793Z,10.27
2023-01-17T14:53:55.873Z,11.75
2023-01-17T14:56:22.644Z,6.30
2023-01-17T14:59:04.326Z,5.22
2023-01-17T15:01:31.152Z,5.80
2023-01-17T15:03:58.594Z,6.15
2023-01-17T15:06:32.751Z,7.40
2023-01-17T15:09:06.901Z,5.43
2023-01-17T15:11:35.915Z,5.53
2023-01-17T15:14:06.028Z,11.38
2023-01-17T15:16:35.315Z,13.23
2023-01-17T15:19:03.059Z,14.88
2023-01-17T15:21:33.822Z,12.05
2023-01-17T15:24:04.725Z,11.40
2023-01-17T15:26:34.662Z,10.70
2023-01-17T15:29:06.347Z,11.77
2023-01-17T15:31:48.547Z,5.53
2023-01-17T15:34:27.148Z,6.63
2023-01-17T15:36:57.387Z,11.98
2023-01-17T15:39:30.177Z,17.35
2023-01-17T15:41:59.665Z,10.20
2023-01-17T15:44:48.083Z,11.30
2023-01-17T15:47:44.625Z,9.18
2023-01-17T15:50:20.409Z,9.20
2023-01-17T15:52:49.217Z,6.82
2023-01-17T15:55:23.176Z,8.82
2023-01-17T15:57:52.918Z,7.20
2023-01-17T16:00:24.498Z,7.60
2023-01-17T16:02:55.883Z,11.20
2023-01-17T16:05:22.914Z,11.43
2023-01-17T16:07:57.902Z,14.10
2023-01-17T16:10:31.847Z,7.68
2023-01-17T16:12:59.423Z,12.57
2023-01-17T16:15:27.482Z,15.95
2023-01-17T16:18:22.214Z,8.35
2023-01-17T16:21:01.665Z,7.50
2023-01-17T16:23:28.310Z,9.48
2023-01-17T16:25:54.942Z,11.10
2023-01-17T16:28:21.422Z,8.48
2023-01-17T16:30:48.858Z,10.77
2023-01-17T16:33:18.506Z,8.32
2023-01-17T16:35:45.150Z,7.75
2023-01-17T16:38:15.789Z,7.68
2023-01-17T16:40:44.528Z,9.75
2023-01-17T16:43:12.303Z,11.65
2023-01-17T16:45:41.258Z,10.82
2023-01-17T16:48:08.658Z,11.25
2023-01-17T16:50:35.169Z,11.23
2023-01-17T16:53:01.631Z,12.43
2023-01-17T16:55:28.157Z,12.07
2023-01-17T16:57:58.007Z,11.63
2023-01-17T17:00:26.940Z,10.50
2023-01-17T17:02:53.775Z,8.43
2023-01-17T17:05:24.197Z,12.52
2023-01-17T17:07:52.649Z,9.10
2023-01-17T17:10:21.481Z,10.60
2023-01-17T17:12:49.962Z,8.05
2023-01-17T17:15:16.455Z,9.35
2023-01-17T17:17:43.664Z,10.15
2023-01-17T17:20:13.381Z,11.63
2023-01-17T17:22:43.117Z,10.90
2023-01-17T17:25:11.213Z,9.65
2023-01-17T17:27:38.646Z,13.35
2023-01-17T17:30:06.836Z,11.48
2023-01-17T17:32:33.439Z,11.23
2023-01-17T17:35:00.098Z,14.52
2023-01-17T17:37:29.143Z,12.02
2023-01-17T17:39:57.164Z,12.20
2023-01-17T17:42:23.739Z,12.00
2023-01-17T17:44:50.264Z,13.73
2023-01-17T17:47:16.660Z,15.27
2023-01-17T17:49:43.493Z,8.27
2023-01-17T17:52:10.088Z,10.23
2023-01-17T17:54:38.079Z,8.95
2023-01-17T17:57:04.609Z,10.50
2023-01-17T17:59:31.220Z,12.43
2023-01-17T18:01:59.682Z,12.25
2023-01-17T18:04:26.896Z,10.57
2023-01-17T18:06:59.141Z,14.25
2023-01-17T18:09:25.608Z,13.07
2023-01-17T18:11:52.114Z,12.25
2023-01-17T18:14:21.067Z,13.02
2023-01-17T18:16:48.043Z,10.07
2023-01-17T18:19:17.939Z,10.13
2023-01-17T18:21:45.172Z,12.32
2023-01-17T18:24:14.705Z,9.25
2023-01-17T18:26:44.518Z,9.82
2023-01-17T18:29:16.376Z,16.02
2023-01-17T18:31:44.349Z,21.15
2023-01-17T18:34:13.567Z,15.00
2023-01-17T18:36:44.121Z,14.05
2023-01-17T18:39:18.773Z,14.25
2023-01-17T18:41:46.020Z,13.23
2023-01-17T18:44:12.543Z,11.55
2023-01-17T18:46:40.205Z,13.57
2023-01-17T18:49:11.054Z,11.25
2023-01-17T18:51:37.860Z,12.77
2023-01-17T18:54:06.919Z,11.20
2023-01-17T18:56:34.891Z,15.75
2023-01-17T18:59:01.469Z,17.95
2023-01-17T19:01:30.598Z,14.00
2023-01-17T19:03:59.135Z,19.67
2023-01-17T19:06:35.071Z,18.70
2023-01-17T19:09:02.639Z,19.25
2023-01-17T19:11:29.320Z,21.08
2023-01-17T19:13:56.141Z,17.52
2023-01-17T19:16:26.397Z,17.42
2023-01-17T19:18:53.135Z,17.02
2023-01-17T19:21:22.441Z,20.45
2023-01-17T19:23:49.185Z,21.23
2023-01-17T19:26:17.213Z,25.63
2023-01-17T19:28:45.224Z,26.25
2023-01-17T19:31:18.108Z,22.52
2023-01-17T19:33:47.925Z,17.95
2023-01-17T19:36:18.509Z,24.95
2023-01-17T19:38:58.756Z,22.88
2023-01-17T19:41:30.716Z,17.67
2023-01-17T19:43:59.667Z,21.85
2023-01-17T19:46:27.567Z,25.33
2023-01-17T19:48:56.547Z,30.92
2023-01-17T19:51:24.335Z,23.15
2023-01-17T19:53:51.528Z,21.80
2023-01-17T19:56:20.995Z,17.30
2023-01-17T19:58:48.090Z,24.77
2023-01-17T20:01:15.767Z,31.48
2023-01-17T20:03:47.292Z,45.53
2023-01-17T20:06:17.204Z,45.25
2023-01-17T20:08:44.773Z,28.90
2023-01-17T20:11:18.603Z,24.70
2023-01-17T20:13:46.262Z,26.98
2023-01-17T20:16:15.107Z,34.67
2023-01-17T20:18:42.381Z,18.92
2023-01-17T20:21:12.373Z,11.57
2023-01-17T20:23:42.860Z,17.25
2023-01-17T20:26:14.580Z,12.52
2023-01-17T20:28:42.627Z,16.60
2023-01-17T20:31:14.946Z,14.82
2023-01-17T20:33:43.168Z,16.02
2023-01-17T20:36:11.990Z,10.93
2023-01-17T20:38:48.716Z,12.13
2023-01-17T20:41:22.470Z,20.95
2023-01-17T20:43:52.387Z,16.08
2023-01-17T20:46:21.119Z,15.60
2023-01-17T20:48:52.559Z,13.30
2023-01-17T20:51:19.915Z,12.13
2023-01-17T20:53:50.726Z,16.45
2023-01-17T20:56:18.823Z,13.27
2023-01-17T20:58:45.761Z,14.55
2023-01-17T21:01:19.119Z,17.13
2023-01-17T21:03:48.010Z,19.75
2023-01-17T21:06:14.877Z,16.10
2023-01-17T21:08:44.192Z,18.13
2023-01-17T21:11:13.253Z,21.92
2023-01-17T21:13:39.894Z,14.98
2023-01-17T21:16:18.680Z,20.48
2023-01-17T21:18:52.502Z,21.13
2023-01-17T21:21:25.275Z,23.52
2023-01-17T21:23:54.825Z,25.48
2023-01-17T21:26:22.735Z,25.90
2023-01-17T21:28:50.975Z,28.08
2023-01-17T21:31:26.491Z,21.35
2023-01-17T21:34:01.965Z,23.80
2023-01-17T21:36:32.676Z,31.15
2023-01-17T21:39:04.173Z,23.17
2023-01-17T21:41:34.899Z,30.00
2023-01-17T21:44:08.520Z,28.55
2023-01-17T21:46:39.080Z,14.15
2023-01-17T21:49:06.212Z,18.25
2023-01-17T21:51:52.547Z,13.18
2023-01-17T21:54:56.630Z,12.02
2023-01-17T21:57:41.840Z,7.03
2023-01-17T22:00:14.608Z,8.73
2023-01-17T22:02:41.839Z,8.18
2023-01-17T22:05:09.350Z,9.00
2023-01-17T22:07:36.184Z,9.02
2023-01-17T22:10:02.581Z,9.35
2023-01-17T22:12:29.031Z,11.98
2023-01-17T22:14:55.470Z,16.70
2023-01-17T22:17:22.515Z,15.77
2023-01-17T22:19:49.316Z,17.58
2023-01-17T22:22:15.856Z,16.10
2023-01-17T22:24:42.343Z,19.80
2023-01-17T22:27:09.951Z,16.95
2023-01-17T22:29:39.243Z,14.27
2023-01-17T22:32:05.788Z,14.05
2023-01-17T22:34:35.807Z,13.75
2023-01-17T22:37:04.757Z,22.48
2023-01-17T22:39:31.230Z,36.47
2023-01-17T22:41:57.743Z,26.60
2023-01-17T22:44:24.175Z,28.55
2023-01-17T22:46:50.624Z,31.25
2023-01-17T22:49:17.203Z,28.00
2023-01-17T22:51:43.858Z,26.60
2023-01-17T22:54:11.527Z,28.88
2023-01-17T22:56:38.132Z,26.13
2023-01-17T22:59:08.011Z,21.98
2023-01-17T23:01:34.870Z,16.13
2023-01-17T23:04:03.440Z,20.35
2023-01-17T23:06:33.154Z,19.48
2023-01-17T23:09:02.660Z,13.88
2023-01-17T23:11:52.644Z,13.30
2023-01-17T23:14:23.232Z,10.57
2023-01-17T23:17:13.659Z,11.32
2023-01-17T23:19:41.510Z,5.43
2023-01-17T23:22:32.946Z,5.68
2023-01-17T23:25:13.447Z,9.30
2023-01-17T23:28:09.871Z,7.40
2023-01-17T23:30:50.878Z,11.13
2023-01-17T23:33:19.311Z,11.23
2023-01-17T23:35:47.952Z,11.55
2023-01-17T23:38:33.617Z,10.55
2023-01-17T23:41:26.965Z,8.60
2023-01-17T23:43:55.071Z,9.95
2023-01-17T23:46:22.503Z,8.45
2023-01-17T23:48:49.338Z,8.18
2023-01-17T23:51:15.890Z,8.07
2023-01-17T23:53:42.503Z,7.03
2023-01-17T23:56:15.104Z,8.25
2023-01-17T23:58:41.862Z,11.57
